logo
App data

Call Of The Mighty Warriors

Two kingdoms in battle against each other, the king Bennevert called for the legendary mighty mercenaries to defend strategic posts in dangerous lands in the battlefield. Are you prepared to be a mercenary?
Store | Hub | SteamDB | Site
Developer: Jaison Robson Gusava, SC Jogos Publisher: SC Jogos
Genre: Indie, Strategy, Early Access
Languages: English
Tags: Early Access (36), Indie (32), Strategy (32), Tower Defense (19)
Category: Single-player, Steam Trading Cards
Release date: Jun 2, 2016
Price: $0.99
Old userscore: 36% Owners: 20,000 .. 50,000
Followers: 96
Peak concurrent players yesterday: 2
Playtime total: 07:52 (average) 06:14 (median)

Steam Spy is still in beta, so expect major bugs.

Owners data:

Access restricted.

This feature is only available to users with special access rights. Sorry.

If you want to proceed, you need to register or log in first and then back Steam Spy on Patreon. Look for Indie or Pro pledge.

Don't forget to use the same email as on Steam Spy!

Audience in 2 weeks:

Access restricted.

This feature is only available to users with special access rights. Sorry.

If you want to proceed, you need to register or log in first and then back Steam Spy on Patreon. Look for Indie or Pro pledge.

Don't forget to use the same email as on Steam Spy!

Peak daily concurrent players:

CCU data courtesy of SteamDB. Used with permission.

Hourly concurrent players:

YouTube:

The views data is based on top 50 videos uploaded last week. Actual number of views might be more than the number shown.

The displayed number of videos uploaded yesterday is limited to 50, so if there were more videos uploaded, the number will still show 50.

If the game has commonly used word as its name (like "FEAR" or "Volume") its number of Youtube views might be wrong.

Games similar to this one:

# Game Release date
Price
Score rank
(Userscore / Metascore)
Owners
Players
Playtime (Median)
1 Season of 12 Colors Mar 14, 2016 $2.9994% (94%)20,000 .. 50,0000%00:00 (00:00)
2 Velocibox Sep 8, 2014 $7.9994% (94%)50,000 .. 100,0000.46%00:01 (00:00)
3 Mimpi Dreams Mar 22, 2016 Free92% (93%)20,000 .. 50,0000%00:00 (00:00)
4 T.E.C. 3001 Apr 10, 2014 N/A89% (92%)20,000 .. 50,0000%00:00 (00:00)
5 STARWHAL Sep 29, 2014 $11.9987% (91%)50,000 .. 100,0001.43%38:49 (38:40)
6 10 Second Ninja X Jul 19, 2016 $9.9987% (91%)20,000 .. 50,0000%00:00 (00:00)
7 Pixel Cup Soccer 17 Aug 4, 2016 $9.9985% (90%)0 .. 20,0000%00:00 (00:00)
8 Deisim Dec 19, 2016 $7.9983% (89%)0 .. 20,0000%00:00 (00:00)
9 Wayout Nov 4, 2016 $0.9981% (88%)50,000 .. 100,0001.57%110:27 (110:25)
10 OPUS: The Day We Found Earth Apr 22, 2016 $8.9978% (86%)20,000 .. 50,0002.63%01:05 (00:21)
11 Angel Express [Tokkyu Tenshi] Jul 15, 2016 $9.99N/A (N/A)0 .. 20,0000%00:00 (00:00)
12 Intensive Exposure Sep 6, 2016 $4.9976% (85%)0 .. 20,0000%00:00 (00:00)
13 Knytt Underground Oct 25, 2013 $6.9973% (83%)50,000 .. 100,0000%00:00 (00:00)
14 Tobari and the Night of the Curious Moon Aug 11, 2012 $9.9973% (83%)0 .. 20,0000%00:00 (00:00)
15 Super Duper Party Pooper Jun 6, 2016 $0.9973% (83%/40%)100,000 .. 200,0000%00:00 (00:00)
16 Mega Coin Squad Aug 15, 2014 $14.9971% (82%/56%)0 .. 20,0000%00:00 (00:00)
17 99Vidas Dec 22, 2016 $12.9970% (81%/69%)20,000 .. 50,0000%00:00 (00:00)
18 New Retro Arcade: Neon Aug 1, 2016 $19.9970% (81%)20,000 .. 50,0000%00:00 (00:00)
19 Distant Space Dec 20, 2016 $0.9968% (79%)50,000 .. 100,0000%00:00 (00:00)
20 The Dark Legions Jul 9, 2016 $1.9968% (79%)0 .. 20,0000%00:00 (00:00)
21 SEAL Team 12 Apr 26, 2012 $1.99N/A (N/A)0 .. 20,0000%00:00 (00:00)
22 Actual Sunlight Apr 3, 2014 $4.9966% (77%/77%)20,000 .. 50,0000%00:00 (00:00)
23 DashBored Jun 13, 2016 $4.99N/A (N/A)0 .. 20,0000%00:00 (00:00)
24 Dustbowl May 18, 2015 $8.9963% (74%)0 .. 20,0000%00:00 (00:00)
25 Too Angry to Space Aug 8, 2016 $0.49N/A (N/A)0 .. 20,0000%00:00 (00:00)
26 Artillerists Jan 2, 2017 $3.9960% (71%)20,000 .. 50,0000%00:00 (00:00)
27 Cosmic Leap Mar 17, 2016 $0.9959% (70%)20,000 .. 50,0000%00:00 (00:00)
28 You Deserve Aug 19, 2016 $0.9959% (70%)20,000 .. 50,0000%00:00 (00:00)
29 Orion Trail Oct 12, 2015 $7.9958% (68%)0 .. 20,0000%00:00 (00:00)
30 Bohemian Killing Jul 21, 2016 $12.9957% (67%/55%)0 .. 20,0000%00:00 (00:00)
31 Showdown Adventure Sep 23, 2016 $2.9956% (66%)0 .. 20,0000%00:00 (00:00)
32 Beater Spirit Jun 1, 2016 $5.9956% (66%)100,000 .. 200,0000%00:00 (00:00)
33 Orbit HD Mar 18, 2015 $1.9955% (65%)20,000 .. 50,0000%00:00 (00:00)
34 The Nest Jun 14, 2016 Free55% (65%)0 .. 20,0000%00:00 (00:00)
35 The Masterplan Jun 4, 2015 $19.9954% (63%/68%)50,000 .. 100,0000%00:00 (00:00)
36 Mindless Running Feb 18, 2016 $0.9953% (62%)50,000 .. 100,0000%00:00 (00:00)
37 Child Phobia: Nightcoming Fears Dec 20, 2016 $1.9953% (61%)0 .. 20,0000%00:00 (00:00)
38 1,000 Heads Among the Trees Dec 11, 2015 $6.9951% (58%)50,000 .. 100,0000%00:00 (00:00)
39 Wheels of Aurelia Sep 20, 2016 $9.9949% (55%/63%)0 .. 20,0000%00:00 (00:00)
40 Mistwood Heroes Dec 30, 2016 $0.99N/A (N/A)20,000 .. 50,0000%00:00 (00:00)
41 Wild Island Quest Sep 4, 2015 $0.4949% (54%)50,000 .. 100,0000%00:00 (00:00)
42 Cube Land Arena Mar 29, 2016 $0.9948% (52%)20,000 .. 50,0000%00:00 (00:00)
43 Starship Annihilator Sep 2, 2016 $0.49N/A (N/A)20,000 .. 50,0000%00:00 (00:00)
44 Aircraft War X Aug 5, 2016 $0.9948% (51%)100,000 .. 200,0000%00:00 (00:00)
45 Deathwave Jun 9, 2016 $4.99N/A (N/A)0 .. 20,0000%00:00 (00:00)
46 Doodle Kingdom Jun 9, 2016 $1.747% (50%)20,000 .. 50,0000%00:00 (00:00)
47 Karma Miwa Aug 12, 2016 $1.99N/A (N/A)20,000 .. 50,0000%00:00 (00:00)
48 MetaTron Dec 19, 2016 N/A46% (45%)0 .. 20,0000%00:00 (00:00)
49 VoxreD Sep 30, 2016 $0.9945% (43%)50,000 .. 100,0000%00:00 (00:00)
50 It Comes Around - A Kinetic Novel Sep 29, 2016 $2.99N/A (N/A)20,000 .. 50,0000%00:00 (00:00)
51 none Nov 4, 2015 N/AN/A (N/A)20,000 .. 50,0000%00:00 (00:00)
52 Wake $4.9943% (31%)0 .. 20,0000%00:00 (00:00)
53 Godus Jul 4, 1970 $14.9943% (27%)200,000 .. 500,0000%00:00 (00:00)
54 Treeker: The Lost Glasses May 13, 2015 $8.99N/A (N/A)0 .. 20,0000%00:00 (00:00)
55 Montague's Mount Nov 19, 2013 $4.99N/A (N/A/39%)20,000 .. 50,0000.69%04:00 (01:20)
56 Luckslinger Jul 16, 2015 $9.99N/A (N/A/76%)0 .. 20,0000%00:00 (00:00)
57 Robot Legions Reborn Jul 19, 2016 $1.99N/A (N/A)20,000 .. 50,0000%00:00 (00:00)
58 Element4l May 24, 2013 $8.99N/A (N/A/77%)50,000 .. 100,0000%00:00 (00:00)
59 Reflections Jun 26, 2015 $9.99N/A (N/A)0 .. 20,0000%00:00 (00:00)
60 Neon Space ULTRA Jun 1, 2016 $2.99N/A (N/A)50,000 .. 100,0000%00:00 (00:00)
61 BIT.TRIP CORE Oct 2, 2012 $9.99N/A (N/A)20,000 .. 50,0000%00:00 (00:00)
62 TIMEframe Jul 7, 2015 $5.99N/A (N/A)100,000 .. 200,0000%00:00 (00:00)
63 Amigdala Mar 28, 2016 $5.99N/A (N/A)20,000 .. 50,0000%00:00 (00:00)
64 Traverser Jul 9, 2015 $14.99N/A (N/A/61%)0 .. 20,0000%00:00 (00:00)
65 PERFECT ANGLE: The puzzle game based on optical illusions Dec 22, 2015 $9.99N/A (N/A)50,000 .. 100,0000%00:00 (00:00)
66 Rhythm Destruction Jun 16, 2014 $4.99N/A (N/A)50,000 .. 100,0000%00:00 (00:00)
67 iZBOT Sep 1, 2015 $11.99N/A (N/A)0 .. 20,0000%00:00 (00:00)
68 Three Kingdoms: The Last Warlord | 三国志:汉末霸业 May 26, 2017 $16.99N/A (N/A)20,000 .. 50,00021.88%02:02 (03:05)
69 Volt Apr 14, 2014 $0.99N/A (N/A)50,000 .. 100,0000%00:00 (00:00)
70 Monument Jun 5, 2015 $3.99N/A (N/A)20,000 .. 50,0000.48%03:34 (01:11)
71 Procyon Feb 26, 2014 $3.99N/A (N/A)20,000 .. 50,0001.47%00:05 (00:01)
72 AdvertCity Apr 17, 2015 $19.99N/A (N/A)0 .. 20,0000%00:00 (00:00)
73 Constant C Mar 7, 2014 $9.99N/A (N/A/60%)20,000 .. 50,0000%00:00 (00:00)
74 Centauri Sector Jun 24, 2015 $4.99N/A (N/A)20,000 .. 50,0001.82%03:16 (01:05)
75 Reflection of Mine Feb 24, 2017 $7.99N/A (N/A)0 .. 20,0001.45%01:12 (00:24)
76 Cargo Commander Nov 1, 2012 $2.99N/A (N/A)100,000 .. 200,0000%00:00 (00:00)
77 Three Fourths Home: Extended Edition Mar 20, 2015 $4.99N/A (N/A/77%)20,000 .. 50,0001.15%02:01 (00:40)
78 Ephemerid: A Musical Adventure Feb 3, 2015 $1.99N/A (N/A)0 .. 20,0000%00:00 (00:00)
79 Binaries Apr 4, 2016 $9.99N/A (N/A)0 .. 20,0000%00:00 (00:00)
80 Chariot Nov 12, 2014 $14.99N/A (N/A/76%)50,000 .. 100,0000%00:00 (00:00)
81 Heavy Gear Assault Feb 10, 2017 $39.99N/A (N/A)0 .. 20,0000%00:00 (00:00)
82 Fancy Skulls Jun 16, 2014 $8.99N/A (N/A)50,000 .. 100,0000.7%00:36 (00:12)
83 Shmadow Nov 3, 2015 $1.99N/A (N/A)20,000 .. 50,0000%00:00 (00:00)
84 Outrunner Apr 12, 2017 $0.99N/A (N/A)50,000 .. 100,0000%00:00 (00:00)
85 Pivvot Jul 14, 2014 $4.99N/A (N/A)0 .. 20,0001.92%00:28 (00:09)
86 Mu Complex Oct 23, 2015 $8.99N/A (N/A)0 .. 20,0000%00:00 (00:00)
87 Munin Jun 10, 2014 $4.99N/A (N/A/68%)100,000 .. 200,0000.85%01:06 (01:05)
88 Ballpoint Universe - Infinite Dec 17, 2013 $3.99N/A (N/A)100,000 .. 200,0000%00:00 (00:00)
89 Canabalt Apr 30, 2015 $2.99N/A (N/A)20,000 .. 50,0000.97%00:02 (00:00)
90 Bye-Bye, Wacky Planet Nov 4, 2016 $6.99N/A (N/A)200,000 .. 500,0000%00:00 (00:00)
91 Intake Nov 5, 2013 $9.99N/A (N/A)20,000 .. 50,0000%00:00 (00:00)
92 Porcunipine May 21, 2015 $9.99N/A (N/A)20,000 .. 50,0000%00:00 (00:00)
93 BIT.TRIP VOID Dec 19, 2012 $9.99N/A (N/A)20,000 .. 50,0000%00:00 (00:00)
94 Tomb of Tyrants Jun 25, 2015 $7.99N/A (N/A)20,000 .. 50,0001.82%01:32 (00:30)
95 The Deer God Feb 27, 2015 $14.99N/A (N/A/59%)20,000 .. 50,0000%00:00 (00:00)
96 TurnOn Jun 1, 2016 $14.99N/A (N/A/67%)20,000 .. 50,0000%00:00 (00:00)
97 Amazing Princess Sarah Aug 18, 2014 $4.99N/A (N/A)0 .. 20,0000%00:00 (00:00)
98 Dream Factory Nov 2, 2015 $9.99N/A (N/A)0 .. 20,0000%00:00 (00:00)
99 Ballad of Solar Apr 18, 2013 $6.99N/A (N/A)0 .. 20,0006.25%05:00 (03:20)
100 Stardust Galaxy Warriors: Stellar Climax Nov 10, 2015 $9.99N/A (N/A)0 .. 20,0000%00:00 (00:00)
101 GORN Jul 10, 2017 $19.99N/A (N/A)100,000 .. 200,00013.13%01:55 (01:12)
102 Slip Apr 28, 2014 $3.99N/A (N/A)20,000 .. 50,0000%00:00 (00:00)
103 Western Press Apr 21, 2016 $1.64N/A (N/A)50,000 .. 100,0000%00:00 (00:00)
104 BoomTown! Deluxe Oct 14, 2016 $1.99N/A (N/A)20,000 .. 50,0000.92%222:01 (74:00)
105 Montas Mar 24, 2014 $9.99N/A (N/A)0 .. 20,0000%00:00 (00:00)
106 Broken Bots Jun 7, 2016 $6.99N/A (N/A)0 .. 20,0000%00:00 (00:00)
107 Solar Flux Oct 24, 2013 $9.99N/A (N/A)100,000 .. 200,0000%00:00 (00:00)
108 Home is Where One Starts... May 12, 2015 $2.99N/A (N/A)20,000 .. 50,0000%00:00 (00:00)
109 Amulet of Dreams Jun 3, 2016 $6.99N/A (N/A)0 .. 20,0000%00:00 (00:00)
110 Puddle Nov 9, 2012 $7.99N/A (N/A)100,000 .. 200,0000%00:00 (00:00)
111 The Cursed Forest Sep 11, 2015 $10.99N/A (N/A)0 .. 20,0000%00:00 (00:00)
112 Wrath of Anna Apr 2, 2018 $19.99N/A (N/A)20,000 .. 50,0000.57%00:30 (00:10)
113 Sky Mercenaries Dec 16, 2014 $9.99N/A (N/A)20,000 .. 50,0000%00:00 (00:00)
114 Empire of the Gods Jan 27, 2016 $0.99N/A (N/A)20,000 .. 50,0000%00:00 (00:00)
115 Ninja Pizza Girl Sep 30, 2015 $6.99N/A (N/A/82%)100,000 .. 200,0000%00:00 (00:00)
116 Planet Diver Nov 30, 2015 $3.99N/A (N/A)0 .. 20,0000%00:00 (00:00)
117 Curses 'N Chaos Aug 18, 2015 $9.99N/A (N/A)50,000 .. 100,0000%00:00 (00:00)
118 Moonbase 332 May 20, 2015 $4.99N/A (N/A)20,000 .. 50,0001.12%02:13 (00:44)
119 Stranded May 20, 2014 $0.99N/A (N/A)20,000 .. 50,0000%00:00 (00:00)
120 Dead In Bermuda Aug 27, 2015 $14.99N/A (N/A)20,000 .. 50,0000%00:00 (00:00)
121 Witch It May 31, 2017 $14.99N/A (N/A)100,000 .. 200,0004.52%01:29 (01:12)
122 4PM Jul 9, 2014 $2.99N/A (N/A/41%)0 .. 20,0000%00:00 (00:00)
123 Cosmophony Jul 9, 2015 $4.99N/A (N/A)0 .. 20,0000%00:00 (00:00)
124 The Gleam: VR Escape the Room Oct 14, 2016 $3.99N/A (N/A)100,000 .. 200,0001.67%00:01 (00:00)
125 Drifter Mar 4, 2014 $11.99N/A (N/A)20,000 .. 50,0000%00:00 (00:00)
126 In Space We Brawl Jul 17, 2015 $8.99N/A (N/A)0 .. 20,0000%00:00 (00:00)
127 Super Puzzle Platformer Deluxe May 24, 2013 $7.99N/A (N/A)50,000 .. 100,0000%00:00 (00:00)
128 An Octave Higher Mar 27, 2015 $11.99N/A (N/A)0 .. 20,0000%00:00 (00:00)
129 Tales From Space: Mutant Blobs Attack Aug 15, 2012 $7.99N/A (N/A/83%)100,000 .. 200,0000%00:00 (00:00)
130 On A Roll 3D Feb 12, 2015 $3.99N/A (N/A)50,000 .. 100,0000%00:00 (00:00)
131 Brute May 17, 2017 $6.99N/A (N/A)0 .. 20,0000%00:00 (00:00)
132 Pix the Cat Jan 29, 2015 $9.99N/A (N/A/77%)50,000 .. 100,0000.61%00:23 (00:07)
133 IMSCARED Feb 3, 2016 $3.99N/A (N/A)20,000 .. 50,0002.08%00:09 (00:03)
134 Hangeki Aug 11, 2014 $9.99N/A (N/A)0 .. 20,0000%00:00 (00:00)
135 Timber and Stone Oct 20, 2015 $12.99N/A (N/A)20,000 .. 50,0000%00:00 (00:00)
136 Boson X Sep 15, 2014 $2.99N/A (N/A)50,000 .. 100,0000%00:00 (00:00)
137 Deserter Simulator Jul 30, 2015 $9.99N/A (N/A)0 .. 20,0000%00:00 (00:00)
138 News Tycoon Mar 24, 2017 $6.99N/A (N/A)0 .. 20,0000%00:00 (00:00)
139 Vitrum Sep 25, 2012 $1.99N/A (N/A)20,000 .. 50,0000%00:00 (00:00)
140 Fortify Apr 8, 2016 $4.99N/A (N/A)0 .. 20,0000%00:00 (00:00)
141 Son of a Witch May 16, 2018 $14.99N/A (N/A)0 .. 20,0007.69%331:50 (110:36)
142 Jones On Fire Mar 14, 2013 $2.99N/A (N/A)100,000 .. 200,0000%00:00 (00:00)
143 Vernon's Legacy Sep 23, 2016 $11.99N/A (N/A)0 .. 20,0000%00:00 (00:00)
144 Maia Nov 23, 2018 $24.99N/A (N/A)50,000 .. 100,0000%00:00 (00:00)
145 Beyond Eyes Aug 11, 2015 $14.99N/A (N/A/60%)100,000 .. 200,0000%00:00 (00:00)
146 Overhell May 28, 2016 $1.99N/A (N/A)200,000 .. 500,0000.31%03:06 (03:05)
147 Papo & Yo Apr 18, 2013 $14.99N/A (N/A/70%)200,000 .. 500,0000%00:00 (00:00)
148 Rats - Time is running out! Aug 19, 2015 $4.99N/A (N/A)50,000 .. 100,0000%00:00 (00:00)
149 Snooker Nation Championship Apr 27, 2016 $3.99N/A (N/A)0 .. 20,0000%00:00 (00:00)
150 Critter Crunch Sep 11, 2012 $6.99N/A (N/A)50,000 .. 100,0001.27%00:01 (00:00)
151 Bloody Streets Mar 12, 2015 $4.99N/A (N/A)20,000 .. 50,0000%00:00 (00:00)
152 Cavern Kings Sep 30, 2014 $9.99N/A (N/A)0 .. 20,0007.69%02:37 (00:52)
153 Back to Bed Aug 6, 2014 $5.99N/A (N/A)500,000 .. 1,000,0000.21%02:13 (02:56)
154 Dragon's Wake Dec 10, 2015 $3.99N/A (N/A)0 .. 20,0000%00:00 (00:00)
155 The Promised Land Jul 11, 2012 $6.99N/A (N/A)20,000 .. 50,0006.52%06:33 (05:12)
156 Aviary Attorney Dec 21, 2015 $14.99N/A (N/A/77%)50,000 .. 100,0000.62%01:09 (01:14)
157 Introvert Quest Mar 15, 2017 $0.49N/A (N/A)200,000 .. 500,0000.13%01:59 (00:39)
158 Warring States Jan 29, 2018 $18.99N/A (N/A)0 .. 20,0000%00:00 (00:00)
159 Shoot 1UP Sep 23, 2015 $3.99N/A (N/A)0 .. 20,0000%00:00 (00:00)
160 Night Forest Nov 8, 2016 $1.99N/A (N/A)100,000 .. 200,0000.19%04:31 (01:30)
161 Journal Feb 17, 2014 $9.99N/A (N/A/59%)20,000 .. 50,0000%00:00 (00:00)
162 Hare In The Hat Apr 1, 2015 $1.99N/A (N/A)20,000 .. 50,0000%00:00 (00:00)
163 Poöf Nov 8, 2013 $6.99N/A (N/A)20,000 .. 50,0000%00:00 (00:00)
164 Star Horizon May 28, 2015 $4.99N/A (N/A)20,000 .. 50,0000%00:00 (00:00)
165 上帝之城 I:监狱帝国 [City of God I - Prison Empire] Jul 9, 2018 $18.99N/A (N/A)50,000 .. 100,00012.5%03:17 (04:40)
166 All Zombies Must Die!: Scorepocalypse Apr 19, 2012 $4.99N/A (N/A)20,000 .. 50,0000%00:00 (00:00)
167 Glorkian Warrior: The Trials Of Glork Mar 24, 2015 $3.99N/A (N/A)20,000 .. 50,0000%00:00 (00:00)
168 Hero Quest: Tower Conflict Apr 13, 2016 $0.99N/A (N/A)200,000 .. 500,0000%00:00 (00:00)
169 Tulpa Jan 29, 2015 $9.99N/A (N/A)20,000 .. 50,0000%00:00 (00:00)
170 Tiny Guardians Mar 23, 2016 $9.99N/A (N/A)0 .. 20,0000%00:00 (00:00)
171 A City Sleeps Oct 16, 2014 $9.99N/A (N/A)20,000 .. 50,0000%00:00 (00:00)
172 Fist Slash: Of Ultimate Fury Dec 10, 2015 $3.99N/A (N/A)0 .. 20,0000%00:00 (00:00)
173 TRISTOY Jan 15, 2015 $6.99N/A (N/A/49%)20,000 .. 50,0000%00:00 (00:00)
174 Redemption: Eternal Quest Aug 28, 2015 $1.99N/A (N/A)100,000 .. 200,0000%00:00 (00:00)
175 Open Sorcery Feb 22, 2017 $3.99N/A (N/A)0 .. 20,0001.61%02:02 (00:40)
176 Three Dead Zed Jul 7, 2014 $5.99N/A (N/A)50,000 .. 100,0000%00:00 (00:00)
177 Untamed: Life Of A Cougar Aug 27, 2015 $14.99N/A (N/A)0 .. 20,0000%00:00 (00:00)
178 Pixel Gladiator Sep 8, 2017 $4.99N/A (N/A)20,000 .. 50,0000.89%00:13 (00:04)
179 10 Second Ninja Mar 5, 2014 $1.99N/A (N/A/72%)50,000 .. 100,0000%00:00 (00:00)
180 Joana's Life Sep 1, 2016 $5.99N/A (N/A)20,000 .. 50,0000.2%02:41 (00:53)
181 FOTONICA Nov 6, 2014 $14.99N/A (N/A/71%)50,000 .. 100,0000.98%00:58 (00:38)
182 Dream Jul 31, 2015 $8.99N/A (N/A/59%)50,000 .. 100,0000%00:00 (00:00)
183 Starship Traveller Mar 11, 2015 $4.99N/A (N/A)0 .. 20,0000%00:00 (00:00)
184 Trouble Witches Origin - Episode1 Daughters of Amalgam - Nov 21, 2016 $9.99N/A (N/A)0 .. 20,0000%00:00 (00:00)
185 BIT.TRIP BEAT Nov 2, 2010 $9.99N/A (N/A)200,000 .. 500,0000%00:00 (00:00)
186 Chronicles of a Dark Lord: Episode 1 Tides of Fate Complete Dec 19, 2014 $1.99N/A (N/A)50,000 .. 100,0000%00:00 (00:00)
187 Disorder Jan 12, 2015 $3.99N/A (N/A/61%)0 .. 20,0000%00:00 (00:00)
188 A Study in Steampunk: Choice by Gaslight Nov 20, 2015 $3.99N/A (N/A)0 .. 20,0000%00:00 (00:00)
189 NEON STRUCT May 20, 2015 $17.99N/A (N/A/62%)50,000 .. 100,0001.61%00:37 (00:24)
190 Kitchen Simulator 2015 Sep 4, 2015 $0.99N/A (N/A)50,000 .. 100,0000%00:00 (00:00)
191 TownCraft Feb 25, 2015 $9.99N/A (N/A)0 .. 20,0000%00:00 (00:00)
192 Rabbit Hole 3D: Steam Edition Apr 25, 2014 $2.99N/A (N/A)50,000 .. 100,0000%00:00 (00:00)
193 Impossiball Aug 8, 2017 $0.99N/A (N/A)0 .. 20,0000%00:00 (00:00)
194 Please, Don't Touch Anything 3D Dec 7, 2016 $9.99N/A (N/A)20,000 .. 50,0000%00:00 (00:00)
195 Kiai Resonance Apr 21, 2015 $4.99N/A (N/A)20,000 .. 50,0000%00:00 (00:00)
196 Alteric Jul 13, 2016 $3.99N/A (N/A)0 .. 20,0000%00:00 (00:00)
197 The Novelist Dec 10, 2013 $9.99N/A (N/A/66%)100,000 .. 200,0000%00:00 (00:00)
198 Bunker - The Underground Game May 21, 2015 $3.99N/A (N/A/70%)0 .. 20,0001.67%00:01 (00:00)
199 Can't Drive This Sep 25, 2016 $9.99N/A (N/A)0 .. 20,0000%00:00 (00:00)
200 Unmechanical Aug 8, 2012 $9.99N/A (N/A/74%)50,000 .. 100,0000.53%00:01 (00:00)
201 Countless Rooms of Death Feb 20, 2014 $0.99N/A (N/A)20,000 .. 50,0000%00:00 (00:00)
202 CrazyCars3D Jun 14, 2016 $2.99N/A (N/A)100,000 .. 200,0000%00:00 (00:00)
203 Amphora Nov 12, 2014 $13.99N/A (N/A)0 .. 20,0000%00:00 (00:00)
204 The Waste Land Sep 16, 2014 $9.99N/A (N/A)0 .. 20,0000%00:00 (00:00)
205 The Purring Quest Nov 12, 2015 $9.99N/A (N/A)50,000 .. 100,0000.59%00:01 (00:00)
206 Concursion Jun 6, 2014 $4.99N/A (N/A/66%)20,000 .. 50,0000%00:00 (00:00)
207 Angry Arrows Aug 12, 2015 $4.99N/A (N/A)0 .. 20,0000%00:00 (00:00)
208 The Quest for Achievements Apr 7, 2017 $4.99N/A (N/A)50,000 .. 100,0000%00:00 (00:00)
209 Starship Corporation May 3, 2018 $19.99N/A (N/A)50,000 .. 100,0000%00:00 (00:00)
210 Sky Rogue Aug 24, 2017 $19.99N/A (N/A)20,000 .. 50,0002.56%00:12 (00:04)
211 Snake Pass Mar 28, 2017 $19.99N/A (N/A/71%)50,000 .. 100,0000.62%02:05 (02:42)
212 Dwelvers Sep 10, 2014 $14.99N/A (N/A)0 .. 20,0000%00:00 (00:00)
213 Pixel Star May 22, 2015 $2.99N/A (N/A)20,000 .. 50,0001.37%03:48 (01:16)
214 Pinkman Jan 16, 2017 $0.99N/A (N/A)0 .. 20,0000%00:00 (00:00)
215 Gentlemen! Nov 5, 2013 $4.99N/A (N/A)20,000 .. 50,0000%00:00 (00:00)
216 Soccer Rage Jun 2, 2015 $9.99N/A (N/A)0 .. 20,0000%00:00 (00:00)
217 Star Drifter Jun 1, 2016 $0.99N/A (N/A)200,000 .. 500,0000%00:00 (00:00)
218 Bad Hotel Oct 16, 2013 $4.99N/A (N/A)50,000 .. 100,0000%00:00 (00:00)
219 Beyond Sol Jun 30, 2015 $9.99N/A (N/A/83%)0 .. 20,0000%00:00 (00:00)
220 Blade Ballet Aug 9, 2016 $14.99N/A (N/A)0 .. 20,0000%00:00 (00:00)
221 Super Splatters Jun 26, 2013 $9.99N/A (N/A/73%)100,000 .. 200,0000.39%07:15 (02:25)
222 Four Sided Fantasy Aug 30, 2016 $9.99N/A (N/A)0 .. 20,0000%00:00 (00:00)
223 Bunker Punks May 28, 2018 $14.99N/A (N/A)0 .. 20,0000%00:00 (00:00)
224 iO Dec 5, 2014 $4.99N/A (N/A)20,000 .. 50,0000%00:00 (00:00)
225 Godus Wars Feb 3, 2016 $14.99N/A (N/A)100,000 .. 200,0000%00:00 (00:00)
226 ChargeShot Sep 18, 2015 $9.99N/A (N/A)20,000 .. 50,0000%00:00 (00:00)
227 Dreaming Sarah Mar 12, 2015 $5.99N/A (N/A)200,000 .. 500,0000.16%03:15 (01:29)
228 Stray Cat Crossing Aug 28, 2015 $2.99N/A (N/A)20,000 .. 50,0000%00:00 (00:00)
229 Kromaia Oct 23, 2014 $19.99N/A (N/A/68%)20,000 .. 50,0000%00:00 (00:00)
230 Tin Star Feb 21, 2014 $4.99N/A (N/A)0 .. 20,0006.67%49:58 (16:39)
231 mr.President Prologue Episode Sep 20, 2016 $0.99N/A (N/A)50,000 .. 100,0000.33%03:00 (01:00)
232 Final Rush Jan 17, 2014 $4.99N/A (N/A)20,000 .. 50,0000%00:00 (00:00)
233 Spellsworn Mar 13, 2018 FreeN/A (N/A)100,000 .. 200,0000.27%03:32 (01:10)
234 Miner Warfare Apr 6, 2012 $2.99N/A (N/A)0 .. 20,0000%00:00 (00:00)
235 Sugar Cube: Bittersweet Factory Nov 7, 2012 $6.99N/A (N/A)20,000 .. 50,0000%00:00 (00:00)
236 stratO Jun 1, 2015 $4.99N/A (N/A)0 .. 20,0000%00:00 (00:00)
237 Phoenix Force Nov 13, 2014 $3.99N/A (N/A)50,000 .. 100,0000%00:00 (00:00)
238 Rencounter Nov 4, 2016 $0.59N/A (N/A)20,000 .. 50,0000%00:00 (00:00)
239 Perraw - FPS Clone War Alpha Jan 29, 2016 $0.99N/A (N/A)0 .. 20,0000%00:00 (00:00)
240 Echo of the Wilds Jun 10, 2014 $8.99N/A (N/A)20,000 .. 50,0000%00:00 (00:00)
241 The Musketeers: Victoria's Quest Jan 7, 2014 $3.99N/A (N/A)0 .. 20,00010%03:02 (01:00)
242 Monolith Jun 7, 2017 $7.99N/A (N/A/83%)20,000 .. 50,00012.9%01:34 (01:13)
243 Uriel's Chasm Sep 12, 2014 $4.99N/A (N/A)200,000 .. 500,0000.3%02:24 (01:35)
244 Sleight Nov 9, 2016 $0.99N/A (N/A)100,000 .. 200,0000.15%04:33 (01:31)
245 Labyrinthine Dreams May 26, 2015 $1.99N/A (N/A)50,000 .. 100,0000.93%01:04 (00:42)
246 Escape Goat 2 Mar 24, 2014 $9.99N/A (N/A/76%)50,000 .. 100,0000%00:00 (00:00)
247 Big Action Mega Fight! Jan 12, 2016 $1.99N/A (N/A)20,000 .. 50,0000%00:00 (00:00)
248 Copy Kitty Apr 19, 2018 $14.99N/A (N/A)0 .. 20,0005.56%00:31 (00:10)
249 Dashy Square Apr 25, 2016 $2.99N/A (N/A)0 .. 20,0000%00:00 (00:00)
250 Ms. Splosion Man Apr 3, 2013 $9.99N/A (N/A)50,000 .. 100,0000.88%02:31 (00:50)
251 Bermuda Mar 17, 2015 $2.99N/A (N/A)50,000 .. 100,0000.62%00:01 (00:00)
252 Share May 3, 2016 $0.99N/A (N/A)20,000 .. 50,0000%00:00 (00:00)
253 Horizon Shift May 29, 2015 $4.99N/A (N/A)200,000 .. 500,0000.16%04:03 (01:21)
254 Bell Ringer Mar 18, 2016 $6.99N/A (N/A)100,000 .. 200,0000%00:00 (00:00)
255 Heroes Rise: HeroFall Jul 11, 2014 $3.99N/A (N/A)0 .. 20,0000%00:00 (00:00)
256 Press X to Not Die Oct 6, 2017 $2.99N/A (N/A)50,000 .. 100,0003.59%00:38 (00:39)
257 Captain Forever Remix Jun 3, 2016 $14.99N/A (N/A)20,000 .. 50,0000%00:00 (00:00)
258 Super Trench Attack 2 Nov 6, 2015 $4.99N/A (N/A)20,000 .. 50,0000%00:00 (00:00)
259 ReignMaker Apr 16, 2014 $14.99N/A (N/A)50,000 .. 100,0000.88%01:34 (01:34)
260 Pizza Express Jun 25, 2015 $6.99N/A (N/A)20,000 .. 50,0000%00:00 (00:00)
261 AIRHEART - Tales of broken Wings Jul 23, 2018 $14.99N/A (N/A/62%)0 .. 20,0000%00:00 (00:00)
262 Full Bore May 6, 2014 $14.99N/A (N/A/72%)20,000 .. 50,0000%00:00 (00:00)
263 Luna Sky Oct 2, 2015 $12.99N/A (N/A)50,000 .. 100,0000.37%05:02 (01:40)
264 Omegalodon Mar 9, 2012 $9.99N/A (N/A)20,000 .. 50,0000%00:00 (00:00)
265 NEO AQUARIUM - The King of Crustaceans - Jun 8, 2015 $8.99N/A (N/A)20,000 .. 50,0000%00:00 (00:00)
266 Party of Sin Dec 13, 2012 $5.99N/A (N/A)50,000 .. 100,0000%00:00 (00:00)
267 Shipwreck Feb 25, 2014 $2.99N/A (N/A)0 .. 20,0003.57%00:34 (00:11)
268 Mainlining Jan 26, 2017 $9.99N/A (N/A/73%)0 .. 20,0000.98%02:30 (00:50)
269 Marvin's Mittens Dec 17, 2014 $5.99N/A (N/A)0 .. 20,0000%00:00 (00:00)
270 Evertown Jan 11, 2016 $2.99N/A (N/A)0 .. 20,0000%00:00 (00:00)
271 Supreme: Pizza Empire Jan 9, 2015 $9.99N/A (N/A)0 .. 20,0000%00:00 (00:00)
272 Faron's Fate Oct 15, 2015 $3.99N/A (N/A)0 .. 20,0000%00:00 (00:00)
273 POP: Methodology Experiment One May 10, 2012 $3.99N/A (N/A)0 .. 20,0000%00:00 (00:00)
274 Void Invaders Aug 14, 2015 $2.99N/A (N/A)20,000 .. 50,0000%00:00 (00:00)
275 Guns of Icarus Alliance Mar 31, 2017 $14.99N/A (N/A)200,000 .. 500,0000.17%01:01 (01:24)
276 Cosmochoria Apr 27, 2015 $9.99N/A (N/A)20,000 .. 50,0001.14%01:01 (00:20)
277 Action Alien Jun 26, 2015 $0.79N/A (N/A)50,000 .. 100,0001.56%03:26 (04:17)
278 Pulstar Jun 11, 2014 $1.99N/A (N/A)20,000 .. 50,0000%00:00 (00:00)
279 Polyball Dec 1, 2017 $14.99N/A (N/A)0 .. 20,0000%00:00 (00:00)
280 Signal Ops Apr 2, 2013 $9.99N/A (N/A/61%)0 .. 20,0000%00:00 (00:00)
281 Inside My Radio May 11, 2015 $14.99N/A (N/A/68%)20,000 .. 50,0001.47%00:41 (00:13)
282 BlastZone 2 Feb 19, 2015 $9.99N/A (N/A)20,000 .. 50,0000%00:00 (00:00)
283 Moonstone Tavern - A Fantasy Tavern Sim! May 13, 2016 $7.99N/A (N/A)20,000 .. 50,0000%00:00 (00:00)
284 SOL: Exodus Jan 25, 2012 $7.99N/A (N/A/57%)50,000 .. 100,0000%00:00 (00:00)
285 Subsiege Sep 7, 2018 $19.99N/A (N/A)0 .. 20,0000%00:00 (00:00)
286 Cubium Dreams Apr 29, 2016 $3.99N/A (N/A)200,000 .. 500,0000.79%03:00 (02:24)
287 Instant Dungeon! Nov 25, 2014 $1.99N/A (N/A)0 .. 20,0000%00:00 (00:00)
288 Space Moth DX Jan 22, 2016 $4.99N/A (N/A)20,000 .. 50,0001.27%03:02 (01:00)
289 Club Life Apr 13, 2016 $11.99N/A (N/A)20,000 .. 50,0000%00:00 (00:00)
290 Frederic: Resurrection of Music May 16, 2014 $2.99N/A (N/A)100,000 .. 200,0000.23%05:33 (01:51)
291 A.I. Invasion Sep 30, 2015 $9.99N/A (N/A)0 .. 20,0000%00:00 (00:00)
292 Project LUX Feb 2, 2018 $24.99N/A (N/A)0 .. 20,0000%00:00 (00:00)
293 Autocraft Sep 20, 2017 $9.99N/A (N/A)20,000 .. 50,0000%00:00 (00:00)
294 Football, Tactics & Glory Jun 1, 2018 $19.99N/A (N/A)20,000 .. 50,0002.38%00:12 (00:04)
295 Filthy Lucre Dec 11, 2016 $12.99N/A (N/A)0 .. 20,0000%00:00 (00:00)
296 A-Men Jan 25, 2014 $9.99N/A (N/A)0 .. 20,0000%00:00 (00:00)
297 Interstellar Rift Jun 23, 2015 $18.99N/A (N/A)20,000 .. 50,0001.96%00:31 (00:10)
298 Escape Goat Jun 14, 2012 $4.99N/A (N/A)20,000 .. 50,0000%00:00 (00:00)
299 Reign of Bullets Aug 19, 2015 $9.99N/A (N/A)0 .. 20,0000%00:00 (00:00)
300 Scanner Sombre Apr 26, 2017 $5.99N/A (N/A/67%)100,000 .. 200,0000.51%00:14 (00:13)
301 Home Jun 1, 2012 $2.99N/A (N/A/69%)200,000 .. 500,0000%00:00 (00:00)
302 It came from space, and ate our brains Mar 19, 2015 $9.99N/A (N/A)50,000 .. 100,0000%00:00 (00:00)
303 StarsOne Apr 8, 2016 $9.99N/A (N/A)20,000 .. 50,0000%00:00 (00:00)
304 A Druid's Duel Feb 25, 2015 $7.99N/A (N/A/70%)0 .. 20,0000%00:00 (00:00)
305 Flobe Feb 22, 2016 $0.99N/A (N/A)0 .. 20,0000%00:00 (00:00)
306 Squishy the Suicidal Pig Oct 23, 2014 $5.99N/A (N/A)200,000 .. 500,0000.29%00:39 (00:25)
307 Morphine Oct 28, 2015 $2.99N/A (N/A)20,000 .. 50,0000.73%03:23 (01:07)
308 Oblitus Feb 27, 2015 $14.99N/A (N/A/69%)0 .. 20,0000%00:00 (00:00)
309 Blaster Shooter GunGuy! Aug 10, 2015 $1.99N/A (N/A)100,000 .. 200,0000%00:00 (00:00)
310 The Archotek Project Apr 28, 2017 $4.99N/A (N/A)50,000 .. 100,0000.05%07:16 (02:25)
311 Arson and Plunder: Unleashed Sep 25, 2015 $4.99N/A (N/A)20,000 .. 50,0000%00:00 (00:00)
312 8Bit Fiesta Sep 30, 2016 FreeN/A (N/A)0 .. 20,0001.96%00:34 (00:11)
313 Imagine Earth May 20, 2014 $19.99N/A (N/A)20,000 .. 50,0000%00:00 (00:00)
314 Mysterious Space May 15, 2015 $10N/A (N/A)0 .. 20,0002.7%00:31 (00:10)
315 Brave Dungeon Sep 2, 2016 $0.99N/A (N/A)50,000 .. 100,0000%00:00 (00:00)
316 Survivor Squad Nov 8, 2013 $2.99N/A (N/A)100,000 .. 200,0000%00:00 (00:00)
317 Gryphon Knight Epic Aug 20, 2015 $6.99N/A (N/A/55%)20,000 .. 50,0000%00:00 (00:00)
318 Zack Zero Apr 29, 2013 $2.99N/A (N/A)50,000 .. 100,0000%00:00 (00:00)
319 Scribble Space Jun 1, 2015 $1.99N/A (N/A)20,000 .. 50,0001.72%01:04 (00:21)
320 NORTH Apr 27, 2016 $1.99N/A (N/A)200,000 .. 500,0000.14%04:31 (01:30)
321 Titan Attacks! Feb 3, 2012 $9.99N/A (N/A)100,000 .. 200,0000%00:00 (00:00)
322 Ukrainian Ninja Dec 23, 2014 FreeN/A (N/A)0 .. 20,0000%00:00 (00:00)
323 Yon Paradox May 6, 2016 $2.99N/A (N/A)0 .. 20,0000%00:00 (00:00)
324 Super Life of Pixel Dec 20, 2018 $9.99N/A (N/A)20,000 .. 50,0000%00:00 (00:00)
325 MetaHuman Inc. Dec 18, 2015 $6.99N/A (N/A)0 .. 20,0000%00:00 (00:00)
326 OTTTD Aug 6, 2014 $7.99N/A (N/A)50,000 .. 100,0000.81%01:06 (00:22)
327 Jet Set Knights Apr 7, 2016 $9.99N/A (N/A)0 .. 20,0000%00:00 (00:00)
328 Frederic: Evil Strikes Back May 23, 2014 $7.99N/A (N/A)100,000 .. 200,0000.24%04:33 (01:31)
329 Earth Overclocked Dec 4, 2015 $9.99N/A (N/A)20,000 .. 50,0000%00:00 (00:00)
330 Starship Theory Jul 4, 2017 $3.99N/A (N/A)50,000 .. 100,0000%00:00 (00:00)
331 The Adventures of Mr. Bobley Jun 30, 2015 $3.99N/A (N/A)50,000 .. 100,0000%00:00 (00:00)
332 Academagia: The Making of Mages Aug 13, 2010 $15.99N/A (N/A)0 .. 20,0000%00:00 (00:00)
333 Imagine Me Mar 14, 2014 $2.99N/A (N/A)50,000 .. 100,0000%00:00 (00:00)
334 BRAWL Aug 13, 2015 $14.99N/A (N/A)0 .. 20,0000%00:00 (00:00)
335 Dinosaur Forest May 17, 2017 $0.49N/A (N/A)50,000 .. 100,0001.51%01:03 (00:58)
336 Gravity Ghost Jan 26, 2015 $14.99N/A (N/A/75%)0 .. 20,0000%00:00 (00:00)
337 Leo’s Fortune - HD Edition Sep 8, 2015 $6.99N/A (N/A)0 .. 20,0000%00:00 (00:00)
338 ORCS May 20, 2016 $1.99N/A (N/A)20,000 .. 50,0001.33%00:01 (00:00)
339 Ultratron Mar 18, 2013 $9.99N/A (N/A)50,000 .. 100,0000%00:00 (00:00)
340 Disillusions Manga Horror Apr 6, 2013 $0.99N/A (N/A)20,000 .. 50,0000%00:00 (00:00)
341 Domino Sky Apr 5, 2016 $3.99N/A (N/A)0 .. 20,0002.67%02:31 (01:40)
342 Dwarf Tower May 5, 2014 $0.99N/A (N/A)20,000 .. 50,0000%00:00 (00:00)
343 Great Permutator Sep 15, 2014 $6.99N/A (N/A)20,000 .. 50,0000.88%04:12 (01:24)
344 Days Under Custody Nov 23, 2015 $4.99N/A (N/A)20,000 .. 50,0000%00:00 (00:00)
345 Iron Fisticle Sep 16, 2014 $8.99N/A (N/A)0 .. 20,0000%00:00 (00:00)
346 Phantom Soldier Mar 29, 2017 $4.99N/A (N/A)100,000 .. 200,0000%00:00 (00:00)
347 Road Not Taken Aug 5, 2014 $14.99N/A (N/A/75%)20,000 .. 50,0000%00:00 (00:00)
348 RETSNOM Jul 23, 2015 $4.99N/A (N/A)0 .. 20,0000%00:00 (00:00)
349 Zolg Dec 2, 2016 $0.99N/A (N/A)20,000 .. 50,0000%00:00 (00:00)

Tags over time:

Access restricted.

This feature is only available to users with special access rights. Sorry.

If you want to proceed, you need to register or log in first and then back Steam Spy on Patreon. Look for Indie or Pro pledge.

Don't forget to use the same email as on Steam Spy!

Owners of this game also own:

Access restricted.

This feature is only available to users with special access rights. Sorry.

If you want to proceed, you need to register or log in first and then back Steam Spy on Patreon. Look for Indie or Pro pledge.

Don't forget to use the same email as on Steam Spy!

Playtime distribution:

Access restricted.

This feature is only available to users with special access rights. Sorry.

If you want to proceed, you need to register or log in first and then back Steam Spy on Patreon. Look for Indie or Pro pledge.

Don't forget to use the same email as on Steam Spy!

Playtime (2 weeks):

Access restricted.

This feature is only available to users with special access rights. Sorry.

If you want to proceed, you need to register or log in first and then back Steam Spy on Patreon. Look for Indie or Pro pledge.

Don't forget to use the same email as on Steam Spy!

User reviews:

Login required.

Please register or log in to see this information.